Other Surface Observations
Issued by NWS Great Falls, MT

Home | Current Version | Previous Version | Text Only | Print | Product List | Glossary On
Versions: 1 2 3 4 5 6 7 8 9 10 11 12 13 14 15 16 17 18 19 20 21 22 23 24 25 26 27 28 29 30 31 32 33 34 35 36 37 38 39 40 41 42 43 44 45 46 47 48 49 50
000
SXUS55 KTFX 310806
OSOTFX
AREA AWOS OBSERVATIONS
NATIONAL WEATHER SERVICE GREAT FALLS MT
0105 AM MST SAT JAN 31 2015

METAR KPWD 310800Z AUTO 06010G14KT 3SM M07/M07 A3019 RMK PLENTYWOOD
METAR KPO1 310800Z AUTO 1 1/2SM M05/M06 A3016 RMK POPLAR
METAR K1S3 310800Z AUTO 03003KT 10SM M04/M06 A3002 RMK FORSYTH
METAR KS71 310800Z AUTO 09008KT 10SM M03/M04 A3001 RMK CHINOOK
METAR K6S0 310800Z AUTO 25011KT 10SM 00/M08 A2998 RMK BIG TIMBER
METAR K38S 310800Z AUTO 00000KT 10SM M06/M07 A3013 RMK DEER LODGE
METAR K3U3 310800Z AUTO 16006KT 10SM M04/M09 A3008 RMK ANACONDA
METAR K6S5 310800Z AUTO 02005KT 10SM M04/M07 A3013 RMK HAMILTON
METAR KS59 310800Z AUTO 00000KT 10SM M03/M04 A3018 RMK LIBBY
METAR K88M 310800Z AUTO 01003KT 10SM M03/M05 A3013 RMK EUREKA



USA.gov is the U.S. government's official web portal to all federal, state and local government web resources and services.